首页
METAR-TAF:

METAR-TAF

机场 :

卡尔加里国际机场

卡尔加里, 艾伯塔, 加拿大

纬度: 51-07N, 经度: 114-01W, 海拔: 1077米

当前天气观测

该预报发布于35分钟前的22:00 UTC
风速13节,风向西,有时为31节阵风,在南转西南西之间变化
温度 25°C
湿度 13%
气压 1006 hPa
能見度: 32.2公里
多云层高于12000英尺
多云层高于25000英尺

METAR: CYYC 142200Z 26013G31KT 200V280 20SM BKN120 BKN250 25/M05 A2971 RMK AC5CI1 ACC ASOCTD / VIRGA / CONTRAILS SLP052 DENSITY ALT 5900FT

时间: 16:35 (22:35 UTC)

预报

该预报发布于1小时和55分钟前的20:40 UTC
预报有效从14日的 21点(UTC)到 15日的 18点(UTC)
风速12节,风向西,有时为22节阵风
能見度: 10公里
散云层高于10000英尺
成为
从 15日的 02点(UTC)到 15日的 04点(UTC)
风速12节,风向
从 15日的 0600点(UTC)
风速8节,风向
能見度: 10公里
多云层高于10000英尺
成为
从 15日的 14点(UTC)到 15日的 16点(UTC)
风速12节,风向东南
从 15日的 1700点(UTC)
风速12节,风向东南
能見度: 10公里
多云层高于8000英尺
小阵雨

TAF: CYYC 142040Z 1421/1518 26012G22KT P6SM SCT100 BECMG 1502/1504 36012KT FM150600 01008KT P6SM BKN100 BECMG 1514/1516 13012KT FM151700 13012KT P6SM -SHRA BKN080 RMK NXT FCST BY 150000Z

超过4000个机场的气象观测和天气预报(METAR&TAF报告)。

可查询的气象台以黄色和红色小点在地图上表示。

将鼠标移到小点上方,可查看气象台名称。

然后点击查看天气观测和预报。

如需切换地图:点击带黑十字的绿色按钮放大地图;点击带横线的绿色按钮缩小地图;或者点击绿色箭头查看邻近地区的地图。


METAR-TAF: